sensor_id;sensor_type;location;lat;lon;timestamp;temperature;humidity
4453;DHT22;2239;48.152;11.584;2024-02-15T00:00:04;10.00;99.90
4453;DHT22;2239;48.152;11.584;2024-02-15T00:02:30;10.00;99.90
4453;DHT22;2239;48.152;11.584;2024-02-15T00:04:56;10.00;99.90
4453;DHT22;2239;48.152;11.584;2024-02-15T00:07:22;10.00;99.90
4453;DHT22;2239;48.152;11.584;2024-02-15T00:09:48;9.90;99.90
4453;DHT22;2239;48.152;11.584;2024-02-15T00:12:14;9.90;99.90
4453;DHT22;2239;48.152;11.584;2024-02-15T00:14:39;9.90;99.90
4453;DHT22;2239;48.152;11.584;2024-02-15T00:17:05;9.90;99.90
4453;DHT22;2239;48.152;11.584;2024-02-15T00:19:31;9.90;99.90
4453;DHT22;2239;48.152;11.584;2024-02-15T00:21:56;9.90;99.90
4453;DHT22;2239;48.152;11.584;2024-02-15T00:24:22;9.90;99.90
4453;DHT22;2239;48.152;11.584;2024-02-15T00:26:51;10.00;99.90
4453;DHT22;2239;48.152;11.584;2024-02-15T00:29:16;9.90;99.90
4453;DHT22;2239;48.152;11.584;2024-02-15T00:31:42;9.90;99.90
4453;DHT22;2239;48.152;11.584;2024-02-15T00:34:07;9.90;99.90
4453;DHT22;2239;48.152;11.584;2024-02-15T00:36:33;9.90;99.90
4453;DHT22;2239;48.152;11.584;2024-02-15T00:38:59;9.90;99.90
4453;DHT22;2239;48.152;11.584;2024-02-15T00:41:25;9.80;99.90
4453;DHT22;2239;48.152;11.584;2024-02-15T00:43:50;9.90;99.90
4453;DHT22;2239;48.152;11.584;2024-02-15T00:46:16;9.80;99.90
4453;DHT22;2239;48.152;11.584;2024-02-15T00:48:42;9.90;99.90
4453;DHT22;2239;48.152;11.584;2024-02-15T00:51:07;9.90;99.90
4453;DHT22;2239;48.152;11.584;2024-02-15T00:53:33;9.90;99.90
4453;DHT22;2239;48.152;11.584;2024-02-15T00:55:59;9.90;99.90
4453;DHT22;2239;48.152;11.584;2024-02-15T00:58:24;9.80;99.90
4453;DHT22;2239;48.152;11.584;2024-02-15T01:00:52;9.90;99.90
4453;DHT22;2239;48.152;11.584;2024-02-15T01:03:19;9.90;99.90
4453;DHT22;2239;48.152;11.584;2024-02-15T01:05:45;9.90;99.90
4453;DHT22;2239;48.152;11.584;2024-02-15T01:08:10;9.90;99.90
4453;DHT22;2239;48.152;11.584;2024-02-15T01:10:36;9.90;99.90
4453;DHT22;2239;48.152;11.584;2024-02-15T01:13:02;9.90;99.90
4453;DHT22;2239;48.152;11.584;2024-02-15T01:15:27;10.00;99.90
4453;DHT22;2239;48.152;11.584;2024-02-15T01:17:53;9.90;99.90
4453;DHT22;2239;48.152;11.584;2024-02-15T01:20:19;10.00;99.90
4453;DHT22;2239;48.152;11.584;2024-02-15T01:22:46;10.00;99.90
4453;DHT22;2239;48.152;11.584;2024-02-15T01:25:12;10.00;99.90
4453;DHT22;2239;48.152;11.584;2024-02-15T01:27:38;10.00;99.90
4453;DHT22;2239;48.152;11.584;2024-02-15T01:30:04;10.00;99.90
4453;DHT22;2239;48.152;11.584;2024-02-15T01:32:30;10.00;99.90
4453;DHT22;2239;48.152;11.584;2024-02-15T01:34:56;10.00;99.90
4453;DHT22;2239;48.152;11.584;2024-02-15T01:37:22;10.00;99.90
4453;DHT22;2239;48.152;11.584;2024-02-15T01:39:48;9.90;99.90
4453;DHT22;2239;48.152;11.584;2024-02-15T01:42:14;9.90;99.90
4453;DHT22;2239;48.152;11.584;2024-02-15T01:44:40;9.90;99.90
4453;DHT22;2239;48.152;11.584;2024-02-15T01:47:06;9.90;99.90
4453;DHT22;2239;48.152;11.584;2024-02-15T01:49:33;9.90;99.90
4453;DHT22;2239;48.152;11.584;2024-02-15T01:52:00;9.80;99.90
4453;DHT22;2239;48.152;11.584;2024-02-15T01:54:28;9.80;99.90
4453;DHT22;2239;48.152;11.584;2024-02-15T01:56:54;9.80;99.90
4453;DHT22;2239;48.152;11.584;2024-02-15T01:59:22;9.80;99.90
4453;DHT22;2239;48.152;11.584;2024-02-15T02:01:48;9.80;99.90
4453;DHT22;2239;48.152;11.584;2024-02-15T02:04:15;9.70;99.90
4453;DHT22;2239;48.152;11.584;2024-02-15T02:06:41;9.70;99.90
4453;DHT22;2239;48.152;11.584;2024-02-15T02:09:11;9.70;99.90
4453;DHT22;2239;48.152;11.584;2024-02-15T02:11:38;9.70;99.90
4453;DHT22;2239;48.152;11.584;2024-02-15T02:14:04;9.70;99.90
4453;DHT22;2239;48.152;11.584;2024-02-15T02:16:30;9.70;99.90
4453;DHT22;2239;48.152;11.584;2024-02-15T02:18:58;9.70;99.90
4453;DHT22;2239;48.152;11.584;2024-02-15T02:21:28;9.70;99.90
4453;DHT22;2239;48.152;11.584;2024-02-15T02:23:58;9.60;99.90
4453;DHT22;2239;48.152;11.584;2024-02-15T02:26:24;9.60;99.90
4453;DHT22;2239;48.152;11.584;2024-02-15T02:28:51;9.60;99.90
4453;DHT22;2239;48.152;11.584;2024-02-15T02:31:20;9.50;99.90
4453;DHT22;2239;48.152;11.584;2024-02-15T02:33:49;9.60;99.90
4453;DHT22;2239;48.152;11.584;2024-02-15T02:36:17;9.60;99.90
4453;DHT22;2239;48.152;11.584;2024-02-15T02:38:43;9.50;99.90
4453;DHT22;2239;48.152;11.584;2024-02-15T02:41:10;9.50;99.90
4453;DHT22;2239;48.152;11.584;2024-02-15T02:43:36;9.60;99.90
4453;DHT22;2239;48.152;11.584;2024-02-15T02:46:03;9.50;99.90
4453;DHT22;2239;48.152;11.584;2024-02-15T02:48:31;9.50;99.90
4453;DHT22;2239;48.152;11.584;2024-02-15T02:50:57;9.50;99.90
4453;DHT22;2239;48.152;11.584;2024-02-15T02:53:23;9.50;99.90
4453;DHT22;2239;48.152;11.584;2024-02-15T02:55:49;9.50;99.90
4453;DHT22;2239;48.152;11.584;2024-02-15T02:58:15;9.50;99.90
4453;DHT22;2239;48.152;11.584;2024-02-15T03:00:40;9.50;99.90
4453;DHT22;2239;48.152;11.584;2024-02-15T03:03:06;9.60;99.90
4453;DHT22;2239;48.152;11.584;2024-02-15T03:05:31;9.60;99.90
4453;DHT22;2239;48.152;11.584;2024-02-15T03:07:57;9.50;99.90
4453;DHT22;2239;48.152;11.584;2024-02-15T03:10:23;9.40;99.90
4453;DHT22;2239;48.152;11.584;2024-02-15T03:12:50;9.40;99.90
4453;DHT22;2239;48.152;11.584;2024-02-15T03:15:16;9.40;99.90
4453;DHT22;2239;48.152;11.584;2024-02-15T03:17:42;9.40;99.90
4453;DHT22;2239;48.152;11.584;2024-02-15T03:20:09;9.40;99.90
4453;DHT22;2239;48.152;11.584;2024-02-15T03:22:59;9.40;99.90
4453;DHT22;2239;48.152;11.584;2024-02-15T03:25:26;9.30;99.90
4453;DHT22;2239;48.152;11.584;2024-02-15T03:27:56;9.30;99.90
4453;DHT22;2239;48.152;11.584;2024-02-15T03:30:22;9.30;99.90
4453;DHT22;2239;48.152;11.584;2024-02-15T03:32:49;9.30;99.90
4453;DHT22;2239;48.152;11.584;2024-02-15T03:35:17;9.20;99.90
4453;DHT22;2239;48.152;11.584;2024-02-15T03:37:43;9.20;99.90
4453;DHT22;2239;48.152;11.584;2024-02-15T03:40:09;9.20;99.90
4453;DHT22;2239;48.152;11.584;2024-02-15T03:42:35;9.20;99.90
4453;DHT22;2239;48.152;11.584;2024-02-15T03:45:05;9.10;99.90
4453;DHT22;2239;48.152;11.584;2024-02-15T03:47:32;9.20;99.90
4453;DHT22;2239;48.152;11.584;2024-02-15T03:49:59;9.10;99.90
4453;DHT22;2239;48.152;11.584;2024-02-15T03:52:25;9.10;99.90
4453;DHT22;2239;48.152;11.584;2024-02-15T03:54:50;9.10;99.90
4453;DHT22;2239;48.152;11.584;2024-02-15T03:57:16;9.10;99.90
4453;DHT22;2239;48.152;11.584;2024-02-15T03:59:42;9.10;99.90
4453;DHT22;2239;48.152;11.584;2024-02-15T04:02:08;9.10;99.90
4453;DHT22;2239;48.152;11.584;2024-02-15T04:04:39;9.10;99.90
4453;DHT22;2239;48.152;11.584;2024-02-15T04:07:07;9.10;99.90
4453;DHT22;2239;48.152;11.584;2024-02-15T04:09:33;9.10;99.90
4453;DHT22;2239;48.152;11.584;2024-02-15T04:12:01;9.10;99.90
4453;DHT22;2239;48.152;11.584;2024-02-15T04:14:27;9.10;99.90
4453;DHT22;2239;48.152;11.584;2024-02-15T04:16:53;9.10;99.90
4453;DHT22;2239;48.152;11.584;2024-02-15T04:19:18;9.10;99.90
4453;DHT22;2239;48.152;11.584;2024-02-15T04:21:45;9.00;99.90
4453;DHT22;2239;48.152;11.584;2024-02-15T04:24:11;9.00;99.90
4453;DHT22;2239;48.152;11.584;2024-02-15T04:26:38;9.00;99.90
4453;DHT22;2239;48.152;11.584;2024-02-15T04:29:04;9.00;99.90
4453;DHT22;2239;48.152;11.584;2024-02-15T04:31:29;8.90;99.90
4453;DHT22;2239;48.152;11.584;2024-02-15T04:33:56;8.90;99.90
4453;DHT22;2239;48.152;11.584;2024-02-15T04:36:22;8.90;99.90
4453;DHT22;2239;48.152;11.584;2024-02-15T04:38:52;8.80;99.90
4453;DHT22;2239;48.152;11.584;2024-02-15T04:41:18;8.80;99.90
4453;DHT22;2239;48.152;11.584;2024-02-15T04:43:49;8.80;99.90
4453;DHT22;2239;48.152;11.584;2024-02-15T04:46:15;8.80;99.90
4453;DHT22;2239;48.152;11.584;2024-02-15T04:48:41;8.80;99.90
4453;DHT22;2239;48.152;11.584;2024-02-15T04:51:08;8.80;99.90
4453;DHT22;2239;48.152;11.584;2024-02-15T04:53:34;8.70;99.90
4453;DHT22;2239;48.152;11.584;2024-02-15T04:56:01;8.70;99.90
4453;DHT22;2239;48.152;11.584;2024-02-15T04:58:32;8.70;99.90
4453;DHT22;2239;48.152;11.584;2024-02-15T05:01:02;8.70;99.90
4453;DHT22;2239;48.152;11.584;2024-02-15T05:03:31;8.60;99.90
4453;DHT22;2239;48.152;11.584;2024-02-15T05:06:00;8.60;99.90
4453;DHT22;2239;48.152;11.584;2024-02-15T05:08:25;8.50;99.90
4453;DHT22;2239;48.152;11.584;2024-02-15T05:10:51;8.50;99.90
4453;DHT22;2239;48.152;11.584;2024-02-15T05:13:24;8.40;99.90
4453;DHT22;2239;48.152;11.584;2024-02-15T05:15:49;8.40;99.90
4453;DHT22;2239;48.152;11.584;2024-02-15T05:18:15;8.40;99.90
4453;DHT22;2239;48.152;11.584;2024-02-15T05:20:42;8.40;99.90
4453;DHT22;2239;48.152;11.584;2024-02-15T05:23:08;8.40;99.90
4453;DHT22;2239;48.152;11.584;2024-02-15T05:25:33;8.40;99.90
4453;DHT22;2239;48.152;11.584;2024-02-15T05:28:01;8.30;99.90
4453;DHT22;2239;48.152;11.584;2024-02-15T05:30:26;8.30;99.90
4453;DHT22;2239;48.152;11.584;2024-02-15T05:32:52;8.30;99.90
4453;DHT22;2239;48.152;11.584;2024-02-15T05:35:18;8.30;99.90
4453;DHT22;2239;48.152;11.584;2024-02-15T05:37:44;8.30;99.90
4453;DHT22;2239;48.152;11.584;2024-02-15T05:40:11;8.20;99.90
4453;DHT22;2239;48.152;11.584;2024-02-15T05:42:42;8.30;99.90
4453;DHT22;2239;48.152;11.584;2024-02-15T05:47:54;8.30;99.90
4453;DHT22;2239;48.152;11.584;2024-02-15T05:50:20;8.20;99.90
4453;DHT22;2239;48.152;11.584;2024-02-15T05:52:47;8.10;99.90
4453;DHT22;2239;48.152;11.584;2024-02-15T05:55:12;8.20;99.90
4453;DHT22;2239;48.152;11.584;2024-02-15T05:57:45;8.10;99.90
4453;DHT22;2239;48.152;11.584;2024-02-15T06:00:11;8.10;99.90
4453;DHT22;2239;48.152;11.584;2024-02-15T06:02:37;8.10;99.90
4453;DHT22;2239;48.152;11.584;2024-02-15T06:05:03;8.10;99.90
4453;DHT22;2239;48.152;11.584;2024-02-15T06:07:30;8.10;99.90
4453;DHT22;2239;48.152;11.584;2024-02-15T06:09:59;8.00;99.90
4453;DHT22;2239;48.152;11.584;2024-02-15T06:12:29;8.00;99.90
4453;DHT22;2239;48.152;11.584;2024-02-15T06:14:54;8.00;99.90
4453;DHT22;2239;48.152;11.584;2024-02-15T06:17:20;7.90;99.90
4453;DHT22;2239;48.152;11.584;2024-02-15T06:19:47;7.90;99.90
4453;DHT22;2239;48.152;11.584;2024-02-15T06:22:12;8.00;99.90
4453;DHT22;2239;48.152;11.584;2024-02-15T06:24:38;8.00;99.90
4453;DHT22;2239;48.152;11.584;2024-02-15T06:27:05;8.00;99.90
4453;DHT22;2239;48.152;11.584;2024-02-15T06:29:31;8.00;99.90
4453;DHT22;2239;48.152;11.584;2024-02-15T06:32:15;8.00;99.90
4453;DHT22;2239;48.152;11.584;2024-02-15T06:34:59;8.00;99.90
4453;DHT22;2239;48.152;11.584;2024-02-15T06:37:51;8.00;99.90
4453;DHT22;2239;48.152;11.584;2024-02-15T06:40:46;8.10;99.90
4453;DHT22;2239;48.152;11.584;2024-02-15T06:43:11;8.10;99.90
4453;DHT22;2239;48.152;11.584;2024-02-15T06:45:37;8.20;99.90
4453;DHT22;2239;48.152;11.584;2024-02-15T06:48:03;8.20;99.90
4453;DHT22;2239;48.152;11.584;2024-02-15T06:50:29;8.30;99.90
4453;DHT22;2239;48.152;11.584;2024-02-15T06:52:55;8.40;99.90
4453;DHT22;2239;48.152;11.584;2024-02-15T06:55:21;8.60;99.90
4453;DHT22;2239;48.152;11.584;2024-02-15T06:57:47;8.90;99.90
4453;DHT22;2239;48.152;11.584;2024-02-15T07:00:13;9.00;99.90
4453;DHT22;2239;48.152;11.584;2024-02-15T07:02:41;9.00;99.90
4453;DHT22;2239;48.152;11.584;2024-02-15T07:05:09;9.00;99.90
4453;DHT22;2239;48.152;11.584;2024-02-15T07:07:35;9.10;99.90
4453;DHT22;2239;48.152;11.584;2024-02-15T07:10:01;9.10;99.90
4453;DHT22;2239;48.152;11.584;2024-02-15T07:12:28;9.20;99.90
4453;DHT22;2239;48.152;11.584;2024-02-15T07:14:53;9.30;99.90
4453;DHT22;2239;48.152;11.584;2024-02-15T07:17:20;9.40;99.90
4453;DHT22;2239;48.152;11.584;2024-02-15T07:19:46;9.40;99.90
4453;DHT22;2239;48.152;11.584;2024-02-15T07:22:15;9.50;99.90
4453;DHT22;2239;48.152;11.584;2024-02-15T07:24:40;9.70;99.90
4453;DHT22;2239;48.152;11.584;2024-02-15T07:27:06;9.90;99.90
4453;DHT22;2239;48.152;11.584;2024-02-15T07:29:31;10.20;99.80
4453;DHT22;2239;48.152;11.584;2024-02-15T07:31:58;10.50;99.10
4453;DHT22;2239;48.152;11.584;2024-02-15T07:34:25;10.80;98.10
4453;DHT22;2239;48.152;11.584;2024-02-15T07:36:52;11.00;97.50
4453;DHT22;2239;48.152;11.584;2024-02-15T07:39:17;11.10;97.00
4453;DHT22;2239;48.152;11.584;2024-02-15T07:41:50;11.40;96.70
4453;DHT22;2239;48.152;11.584;2024-02-15T07:44:16;11.50;96.30
4453;DHT22;2239;48.152;11.584;2024-02-15T07:46:43;11.80;95.70
4453;DHT22;2239;48.152;11.584;2024-02-15T07:49:08;12.10;95.00
4453;DHT22;2239;48.152;11.584;2024-02-15T07:51:34;12.40;94.60
4453;DHT22;2239;48.152;11.584;2024-02-15T07:54:01;12.80;94.00
4453;DHT22;2239;48.152;11.584;2024-02-15T07:56:27;13.10;92.90
4453;DHT22;2239;48.152;11.584;2024-02-15T07:58:53;13.20;92.50
4453;DHT22;2239;48.152;11.584;2024-02-15T08:01:18;13.30;92.40
4453;DHT22;2239;48.152;11.584;2024-02-15T08:03:47;13.60;91.90
4453;DHT22;2239;48.152;11.584;2024-02-15T08:06:13;13.90;91.20
4453;DHT22;2239;48.152;11.584;2024-02-15T08:08:40;14.10;90.70
4453;DHT22;2239;48.152;11.584;2024-02-15T08:11:11;14.60;90.50
4453;DHT22;2239;48.152;11.584;2024-02-15T08:13:47;15.10;89.30
4453;DHT22;2239;48.152;11.584;2024-02-15T08:16:20;15.40;87.00
4453;DHT22;2239;48.152;11.584;2024-02-15T08:18:48;15.60;85.10
4453;DHT22;2239;48.152;11.584;2024-02-15T08:21:14;15.80;85.80
4453;DHT22;2239;48.152;11.584;2024-02-15T08:23:40;16.20;84.10
4453;DHT22;2239;48.152;11.584;2024-02-15T08:26:05;16.60;83.50
4453;DHT22;2239;48.152;11.584;2024-02-15T08:28:31;16.70;81.00
4453;DHT22;2239;48.152;11.584;2024-02-15T08:30:57;16.70;80.00
4453;DHT22;2239;48.152;11.584;2024-02-15T08:33:24;16.50;79.60
4453;DHT22;2239;48.152;11.584;2024-02-15T08:35:49;16.20;80.10
4453;DHT22;2239;48.152;11.584;2024-02-15T08:38:15;16.20;80.50
4453;DHT22;2239;48.152;11.584;2024-02-15T08:40:40;15.90;80.00
4453;DHT22;2239;48.152;11.584;2024-02-15T08:43:06;15.70;80.30
4453;DHT22;2239;48.152;11.584;2024-02-15T08:45:31;15.40;80.70
4453;DHT22;2239;48.152;11.584;2024-02-15T08:47:57;15.30;81.00
4453;DHT22;2239;48.152;11.584;2024-02-15T08:50:23;15.50;81.40
4453;DHT22;2239;48.152;11.584;2024-02-15T08:52:49;15.90;80.70
4453;DHT22;2239;48.152;11.584;2024-02-15T08:55:15;16.40;79.90
4453;DHT22;2239;48.152;11.584;2024-02-15T08:57:43;17.00;77.30
4453;DHT22;2239;48.152;11.584;2024-02-15T09:00:10;17.10;76.20
4453;DHT22;2239;48.152;11.584;2024-02-15T09:02:40;17.40;76.30
4453;DHT22;2239;48.152;11.584;2024-02-15T09:05:06;18.10;74.50
4453;DHT22;2239;48.152;11.584;2024-02-15T09:07:32;18.40;72.30
4453;DHT22;2239;48.152;11.584;2024-02-15T09:09:59;18.70;71.10
4453;DHT22;2239;48.152;11.584;2024-02-15T09:12:24;19.10;69.20
4453;DHT22;2239;48.152;11.584;2024-02-15T09:14:50;19.40;68.50
4453;DHT22;2239;48.152;11.584;2024-02-15T09:17:15;19.60;66.10
4453;DHT22;2239;48.152;11.584;2024-02-15T09:19:41;19.90;65.00
4453;DHT22;2239;48.152;11.584;2024-02-15T09:22:07;19.80;63.30
4453;DHT22;2239;48.152;11.584;2024-02-15T09:24:33;19.80;63.80
4453;DHT22;2239;48.152;11.584;2024-02-15T09:27:02;20.00;63.80
4453;DHT22;2239;48.152;11.584;2024-02-15T09:29:28;20.30;63.40
4453;DHT22;2239;48.152;11.584;2024-02-15T09:32:00;20.30;62.40
4453;DHT22;2239;48.152;11.584;2024-02-15T09:34:28;20.40;62.50
4453;DHT22;2239;48.152;11.584;2024-02-15T09:36:54;20.00;61.00
4453;DHT22;2239;48.152;11.584;2024-02-15T09:39:22;20.10;62.80
4453;DHT22;2239;48.152;11.584;2024-02-15T09:41:48;20.50;62.50
4453;DHT22;2239;48.152;11.584;2024-02-15T09:44:21;20.40;62.40
4453;DHT22;2239;48.152;11.584;2024-02-15T09:46:51;20.40;62.50
4453;DHT22;2239;48.152;11.584;2024-02-15T09:49:18;20.60;62.80
4453;DHT22;2239;48.152;11.584;2024-02-15T09:51:47;21.00;61.80
4453;DHT22;2239;48.152;11.584;2024-02-15T09:54:14;21.20;60.30
4453;DHT22;2239;48.152;11.584;2024-02-15T09:56:47;21.50;59.90
4453;DHT22;2239;48.152;11.584;2024-02-15T09:59:13;21.50;60.00
4453;DHT22;2239;48.152;11.584;2024-02-15T10:01:39;21.00;60.10
4453;DHT22;2239;48.152;11.584;2024-02-15T10:04:06;21.20;60.70
4453;DHT22;2239;48.152;11.584;2024-02-15T10:06:32;20.60;60.70
4453;DHT22;2239;48.152;11.584;2024-02-15T10:09:23;19.80;61.80
4453;DHT22;2239;48.152;11.584;2024-02-15T10:11:57;19.30;62.90
4453;DHT22;2239;48.152;11.584;2024-02-15T10:14:24;19.40;64.70
4453;DHT22;2239;48.152;11.584;2024-02-15T10:16:51;19.90;64.60
4453;DHT22;2239;48.152;11.584;2024-02-15T10:19:18;19.90;62.80
4453;DHT22;2239;48.152;11.584;2024-02-15T10:21:46;19.90;63.40
4453;DHT22;2239;48.152;11.584;2024-02-15T10:24:11;20.30;63.70
4453;DHT22;2239;48.152;11.584;2024-02-15T10:26:37;20.60;63.60
4453;DHT22;2239;48.152;11.584;2024-02-15T10:29:07;20.50;62.90
4453;DHT22;2239;48.152;11.584;2024-02-15T10:31:35;19.90;64.40
4453;DHT22;2239;48.152;11.584;2024-02-15T10:34:05;19.30;66.80
4453;DHT22;2239;48.152;11.584;2024-02-15T10:36:33;19.20;69.00
4453;DHT22;2239;48.152;11.584;2024-02-15T10:39:11;19.40;68.00
4453;DHT22;2239;48.152;11.584;2024-02-15T10:41:38;19.20;69.40
4453;DHT22;2239;48.152;11.584;2024-02-15T10:44:06;19.10;69.90
4453;DHT22;2239;48.152;11.584;2024-02-15T10:46:33;19.30;70.40
4453;DHT22;2239;48.152;11.584;2024-02-15T10:48:58;19.50;69.20
4453;DHT22;2239;48.152;11.584;2024-02-15T10:51:24;19.50;69.50
4453;DHT22;2239;48.152;11.584;2024-02-15T10:53:58;19.40;69.60
4453;DHT22;2239;48.152;11.584;2024-02-15T10:56:34;19.40;69.30
4453;DHT22;2239;48.152;11.584;2024-02-15T10:59:16;19.70;68.60
4453;DHT22;2239;48.152;11.584;2024-02-15T11:01:43;20.00;67.50
4453;DHT22;2239;48.152;11.584;2024-02-15T11:04:12;20.20;66.40
4453;DHT22;2239;48.152;11.584;2024-02-15T11:06:39;19.90;66.90
4453;DHT22;2239;48.152;11.584;2024-02-15T11:09:08;19.80;66.20
4453;DHT22;2239;48.152;11.584;2024-02-15T11:11:34;20.20;67.10
4453;DHT22;2239;48.152;11.584;2024-02-15T11:14:29;20.30;65.00
4453;DHT22;2239;48.152;11.584;2024-02-15T11:16:56;20.10;65.80
4453;DHT22;2239;48.152;11.584;2024-02-15T11:22:08;20.20;65.80
4453;DHT22;2239;48.152;11.584;2024-02-15T11:24:36;20.00;66.60
4453;DHT22;2239;48.152;11.584;2024-02-15T11:27:06;19.70;66.40
4453;DHT22;2239;48.152;11.584;2024-02-15T11:29:54;19.70;66.40
4453;DHT22;2239;48.152;11.584;2024-02-15T11:32:37;20.20;66.20
4453;DHT22;2239;48.152;11.584;2024-02-15T11:35:11;20.80;64.70
4453;DHT22;2239;48.152;11.584;2024-02-15T11:40:16;20.30;64.20
4453;DHT22;2239;48.152;11.584;2024-02-15T11:42:42;20.30;64.70
4453;DHT22;2239;48.152;11.584;2024-02-15T11:45:08;20.50;64.50
4453;DHT22;2239;48.152;11.584;2024-02-15T11:47:38;20.40;63.50
4453;DHT22;2239;48.152;11.584;2024-02-15T11:50:09;20.50;63.20
4453;DHT22;2239;48.152;11.584;2024-02-15T11:52:44;20.90;64.00
4453;DHT22;2239;48.152;11.584;2024-02-15T11:55:11;21.50;62.60
4453;DHT22;2239;48.152;11.584;2024-02-15T11:57:57;21.90;60.40
4453;DHT22;2239;48.152;11.584;2024-02-15T12:00:35;21.50;59.00
4453;DHT22;2239;48.152;11.584;2024-02-15T12:03:20;21.20;59.80
4453;DHT22;2239;48.152;11.584;2024-02-15T12:06:10;21.20;60.70
4453;DHT22;2239;48.152;11.584;2024-02-15T12:08:55;21.20;60.30
4453;DHT22;2239;48.152;11.584;2024-02-15T12:11:40;20.90;59.30
4453;DHT22;2239;48.152;11.584;2024-02-15T12:14:24;20.50;59.60
4453;DHT22;2239;48.152;11.584;2024-02-15T12:17:11;20.40;60.50
4453;DHT22;2239;48.152;11.584;2024-02-15T12:19:57;20.20;60.70
4453;DHT22;2239;48.152;11.584;2024-02-15T12:22:35;20.00;60.50
4453;DHT22;2239;48.152;11.584;2024-02-15T12:25:02;20.00;60.90
4453;DHT22;2239;48.152;11.584;2024-02-15T12:27:55;19.70;61.10
4453;DHT22;2239;48.152;11.584;2024-02-15T12:30:22;19.40;61.60
4453;DHT22;2239;48.152;11.584;2024-02-15T12:32:51;19.30;62.00
4453;DHT22;2239;48.152;11.584;2024-02-15T12:35:19;19.10;62.30
4453;DHT22;2239;48.152;11.584;2024-02-15T12:37:46;18.90;62.10
4453;DHT22;2239;48.152;11.584;2024-02-15T12:40:20;18.90;63.40
4453;DHT22;2239;48.152;11.584;2024-02-15T12:42:47;19.00;63.20
4453;DHT22;2239;48.152;11.584;2024-02-15T12:45:17;19.30;63.00
4453;DHT22;2239;48.152;11.584;2024-02-15T12:47:55;19.30;61.90
4453;DHT22;2239;48.152;11.584;2024-02-15T12:50:31;19.50;63.00
4453;DHT22;2239;48.152;11.584;2024-02-15T12:52:57;19.60;62.10
4453;DHT22;2239;48.152;11.584;2024-02-15T12:55:32;19.70;62.40
4453;DHT22;2239;48.152;11.584;2024-02-15T12:58:06;19.90;60.90
4453;DHT22;2239;48.152;11.584;2024-02-15T13:00:35;19.70;60.40
4453;DHT22;2239;48.152;11.584;2024-02-15T13:03:08;19.40;62.60
4453;DHT22;2239;48.152;11.584;2024-02-15T13:05:35;19.30;63.10
4453;DHT22;2239;48.152;11.584;2024-02-15T13:08:02;18.70;65.00
4453;DHT22;2239;48.152;11.584;2024-02-15T13:10:29;18.40;66.10
4453;DHT22;2239;48.152;11.584;2024-02-15T13:12:55;18.20;67.20
4453;DHT22;2239;48.152;11.584;2024-02-15T13:15:22;18.30;67.40
4453;DHT22;2239;48.152;11.584;2024-02-15T13:17:55;18.40;68.20
4453;DHT22;2239;48.152;11.584;2024-02-15T13:20:25;18.60;67.60
4453;DHT22;2239;48.152;11.584;2024-02-15T13:23:04;18.50;67.60
4453;DHT22;2239;48.152;11.584;2024-02-15T13:25:48;18.30;67.90
4453;DHT22;2239;48.152;11.584;2024-02-15T13:28:14;18.00;68.60
4453;DHT22;2239;48.152;11.584;2024-02-15T13:30:41;17.80;69.30
4453;DHT22;2239;48.152;11.584;2024-02-15T13:33:09;17.70;69.60
4453;DHT22;2239;48.152;11.584;2024-02-15T13:35:34;17.70;70.30
4453;DHT22;2239;48.152;11.584;2024-02-15T13:38:01;17.60;70.30
4453;DHT22;2239;48.152;11.584;2024-02-15T13:40:28;17.60;71.20
4453;DHT22;2239;48.152;11.584;2024-02-15T13:42:57;17.70;71.30
4453;DHT22;2239;48.152;11.584;2024-02-15T13:45:31;17.80;70.40
4453;DHT22;2239;48.152;11.584;2024-02-15T13:47:59;17.80;70.70
4453;DHT22;2239;48.152;11.584;2024-02-15T13:50:27;17.70;70.10
4453;DHT22;2239;48.152;11.584;2024-02-15T13:52:53;17.70;70.90
4453;DHT22;2239;48.152;11.584;2024-02-15T13:55:19;17.80;70.50
4453;DHT22;2239;48.152;11.584;2024-02-15T13:57:46;17.90;70.10
4453;DHT22;2239;48.152;11.584;2024-02-15T14:00:16;17.90;70.10
4453;DHT22;2239;48.152;11.584;2024-02-15T14:02:51;17.80;70.20
4453;DHT22;2239;48.152;11.584;2024-02-15T14:05:24;18.00;70.30
4453;DHT22;2239;48.152;11.584;2024-02-15T14:07:52;18.10;69.60
4453;DHT22;2239;48.152;11.584;2024-02-15T14:10:31;18.10;69.20
4453;DHT22;2239;48.152;11.584;2024-02-15T14:12:57;18.20;69.20
4453;DHT22;2239;48.152;11.584;2024-02-15T14:15:31;18.20;68.90
4453;DHT22;2239;48.152;11.584;2024-02-15T14:18:04;18.30;68.40
4453;DHT22;2239;48.152;11.584;2024-02-15T14:20:29;18.50;68.40
4453;DHT22;2239;48.152;11.584;2024-02-15T14:22:55;18.40;67.00
4453;DHT22;2239;48.152;11.584;2024-02-15T14:25:24;18.40;67.00
4453;DHT22;2239;48.152;11.584;2024-02-15T14:27:56;18.50;66.40
4453;DHT22;2239;48.152;11.584;2024-02-15T14:30:22;18.60;66.10
4453;DHT22;2239;48.152;11.584;2024-02-15T14:33:06;18.80;67.20
4453;DHT22;2239;48.152;11.584;2024-02-15T14:35:37;18.80;66.10
4453;DHT22;2239;48.152;11.584;2024-02-15T14:38:05;18.60;66.40
4453;DHT22;2239;48.152;11.584;2024-02-15T14:40:35;18.50;66.20
4453;DHT22;2239;48.152;11.584;2024-02-15T14:43:02;18.30;66.70
4453;DHT22;2239;48.152;11.584;2024-02-15T14:45:30;18.20;66.40
4453;DHT22;2239;48.152;11.584;2024-02-15T14:47:58;18.20;68.20
4453;DHT22;2239;48.152;11.584;2024-02-15T14:50:24;18.30;67.30
4453;DHT22;2239;48.152;11.584;2024-02-15T14:52:51;18.20;68.10
4453;DHT22;2239;48.152;11.584;2024-02-15T14:55:19;18.00;69.90
4453;DHT22;2239;48.152;11.584;2024-02-15T14:57:44;17.80;70.70
4453;DHT22;2239;48.152;11.584;2024-02-15T15:00:11;17.60;71.70
4453;DHT22;2239;48.152;11.584;2024-02-15T15:02:46;17.40;72.80
4453;DHT22;2239;48.152;11.584;2024-02-15T15:05:12;17.30;72.90
4453;DHT22;2239;48.152;11.584;2024-02-15T15:07:57;17.20;73.70
4453;DHT22;2239;48.152;11.584;2024-02-15T15:10:42;17.00;74.70
4453;DHT22;2239;48.152;11.584;2024-02-15T15:13:26;17.00;75.30
4453;DHT22;2239;48.152;11.584;2024-02-15T15:15:52;16.90;75.70
4453;DHT22;2239;48.152;11.584;2024-02-15T15:18:17;16.70;76.00
4453;DHT22;2239;48.152;11.584;2024-02-15T15:20:44;16.60;76.70
4453;DHT22;2239;48.152;11.584;2024-02-15T15:23:09;16.50;77.50
4453;DHT22;2239;48.152;11.584;2024-02-15T15:25:36;16.30;78.00
4453;DHT22;2239;48.152;11.584;2024-02-15T15:28:03;16.00;79.20
4453;DHT22;2239;48.152;11.584;2024-02-15T15:30:30;16.00;79.90
4453;DHT22;2239;48.152;11.584;2024-02-15T15:32:56;16.00;80.40
4453;DHT22;2239;48.152;11.584;2024-02-15T15:35:22;16.00;80.50
4453;DHT22;2239;48.152;11.584;2024-02-15T15:37:49;15.90;80.80
4453;DHT22;2239;48.152;11.584;2024-02-15T15:40:16;15.90;81.30
4453;DHT22;2239;48.152;11.584;2024-02-15T15:42:42;15.80;81.80
4453;DHT22;2239;48.152;11.584;2024-02-15T15:45:09;15.80;82.50
4453;DHT22;2239;48.152;11.584;2024-02-15T15:47:35;15.80;82.70
4453;DHT22;2239;48.152;11.584;2024-02-15T15:50:01;15.80;83.10
4453;DHT22;2239;48.152;11.584;2024-02-15T15:52:27;15.70;83.40
4453;DHT22;2239;48.152;11.584;2024-02-15T15:54:53;15.60;83.70
4453;DHT22;2239;48.152;11.584;2024-02-15T15:57:19;15.60;84.00
4453;DHT22;2239;48.152;11.584;2024-02-15T15:59:46;15.50;84.70
4453;DHT22;2239;48.152;11.584;2024-02-15T16:02:14;15.40;85.10
4453;DHT22;2239;48.152;11.584;2024-02-15T16:04:46;15.30;85.90
4453;DHT22;2239;48.152;11.584;2024-02-15T16:07:13;15.20;86.40